createdAt,value
2023-03-05T00:01:35.598Z,22.92
2023-03-05T00:03:38.570Z,18.45
2023-03-05T00:05:43.229Z,18.65
2023-03-05T00:07:46.392Z,20.33
2023-03-05T00:09:49.424Z,19.90
2023-03-05T00:11:52.766Z,23.10
2023-03-05T00:14:00.980Z,17.35
2023-03-05T00:16:04.723Z,16.23
2023-03-05T00:18:07.736Z,19.63
2023-03-05T00:20:11.588Z,19.85
2023-03-05T00:22:16.532Z,18.50
2023-03-05T00:24:19.617Z,15.40
2023-03-05T00:26:25.180Z,13.43
2023-03-05T00:28:28.098Z,13.80
2023-03-05T00:30:31.658Z,12.80
2023-03-05T00:32:36.026Z,14.18
2023-03-05T00:34:38.919Z,7.93
2023-03-05T00:36:42.628Z,13.90
2023-03-05T00:38:47.299Z,10.23
2023-03-05T00:40:51.473Z,11.40
2023-03-05T00:42:54.621Z,9.82
2023-03-05T00:44:57.563Z,9.48
2023-03-05T00:47:05.221Z,9.20
2023-03-05T00:49:08.467Z,10.52
2023-03-05T00:51:11.559Z,6.90
2023-03-05T00:53:14.640Z,8.30
2023-03-05T00:55:19.450Z,9.77
2023-03-05T00:57:22.549Z,9.87
2023-03-05T00:59:25.500Z,9.15
2023-03-05T01:01:29.480Z,10.85
2023-03-05T01:03:33.904Z,9.65
2023-03-05T01:05:37.178Z,10.75
2023-03-05T01:07:40.941Z,9.65
2023-03-05T01:09:43.914Z,10.93
2023-03-05T01:11:48.363Z,11.15
2023-03-05T01:13:51.288Z,7.85
2023-03-05T01:15:54.437Z,10.25
2023-03-05T01:17:57.317Z,11.80
2023-03-05T01:20:00.382Z,9.18
2023-03-05T01:22:03.484Z,7.97
2023-03-05T01:24:07.647Z,9.32
2023-03-05T01:26:10.715Z,8.82
2023-03-05T01:28:15.752Z,13.55
2023-03-05T01:30:18.921Z,7.57
2023-03-05T01:32:25.047Z,8.50
2023-03-05T01:34:28.013Z,13.60
2023-03-05T01:36:32.344Z,11.25
2023-03-05T01:38:35.188Z,9.20
2023-03-05T01:40:38.053Z,8.52
2023-03-05T01:42:41.025Z,9.57
2023-03-05T01:45:04.537Z,10.02
2023-03-05T01:47:07.462Z,16.67
2023-03-05T01:49:20.025Z,11.02
2023-03-05T01:51:27.389Z,13.95
2023-03-05T01:53:31.349Z,11.55
2023-03-05T01:55:37.601Z,13.10
2023-03-05T01:57:44.853Z,12.77
2023-03-05T01:59:51.381Z,17.15
2023-03-05T02:01:58.404Z,21.67
2023-03-05T02:04:02.770Z,13.50
2023-03-05T02:06:06.409Z,16.33
2023-03-05T02:08:12.049Z,21.02
2023-03-05T02:10:17.409Z,24.83
2023-03-05T02:12:20.590Z,22.48
2023-03-05T02:14:26.780Z,23.38
2023-03-05T02:16:36.269Z,22.08
2023-03-05T02:18:40.769Z,25.38
2023-03-05T02:20:46.269Z,22.75
2023-03-05T02:22:50.924Z,23.30
2023-03-05T02:24:53.848Z,23.40
2023-03-05T02:26:56.845Z,16.45
2023-03-05T02:29:03.474Z,17.77
2023-03-05T02:31:10.435Z,17.45
2023-03-05T02:33:15.097Z,15.02
2023-03-05T02:35:18.803Z,15.38
2023-03-05T02:37:22.445Z,14.10
2023-03-05T02:39:29.105Z,13.07
2023-03-05T02:41:31.983Z,12.50
2023-03-05T02:43:35.524Z,14.07
2023-03-05T02:45:39.782Z,11.80
2023-03-05T02:47:42.944Z,14.07
2023-03-05T02:49:45.954Z,13.10
2023-03-05T02:51:52.064Z,11.77
2023-03-05T02:53:55.533Z,11.70
2023-03-05T02:56:04.876Z,10.38
2023-03-05T02:58:10.676Z,9.20
2023-03-05T03:00:14.768Z,11.35
2023-03-05T03:02:17.917Z,9.55
2023-03-05T03:04:21.169Z,14.18
2023-03-05T03:06:23.998Z,10.35
2023-03-05T03:08:27.246Z,10.25
2023-03-05T03:10:30.585Z,9.70
2023-03-05T03:12:37.803Z,9.70
2023-03-05T03:14:42.920Z,8.23
2023-03-05T03:16:46.175Z,7.28
2023-03-05T03:18:49.230Z,9.07
2023-03-05T03:20:52.218Z,9.13
2023-03-05T03:22:55.555Z,12.18
2023-03-05T03:24:58.649Z,10.05
2023-03-05T03:27:02.119Z,12.10
2023-03-05T03:29:06.599Z,10.25
2023-03-05T03:31:09.650Z,8.43
2023-03-05T03:33:13.041Z,11.57
2023-03-05T03:35:15.944Z,9.90
2023-03-05T03:37:18.839Z,10.60
2023-03-05T03:39:30.016Z,10.77
2023-03-05T03:41:33.881Z,9.13
2023-03-05T03:43:37.443Z,8.98
2023-03-05T03:45:48.331Z,7.47
2023-03-05T03:47:52.195Z,8.68
2023-03-05T03:49:55.488Z,11.38
2023-03-05T03:52:01.380Z,9.40
2023-03-05T03:54:04.543Z,8.77
2023-03-05T03:56:07.974Z,6.68
2023-03-05T03:58:11.281Z,13.85
2023-03-05T04:00:14.973Z,8.52
2023-03-05T04:02:19.713Z,7.43
2023-03-05T04:04:22.634Z,6.57
2023-03-05T04:06:25.763Z,7.00
2023-03-05T04:08:28.707Z,9.20
2023-03-05T04:10:31.723Z,7.22
2023-03-05T04:12:37.322Z,9.60
2023-03-05T04:16:52.063Z,9.15
2023-03-05T04:18:56.805Z,10.80
2023-03-05T04:20:59.762Z,17.00
2023-03-05T04:23:02.833Z,12.95
2023-03-05T04:25:06.963Z,20.35
2023-03-05T04:27:10.446Z,20.38
2023-03-05T04:29:13.541Z,19.75
2023-03-05T04:31:17.602Z,17.48
2023-03-05T04:33:23.048Z,13.20
2023-03-05T04:35:27.606Z,13.10
2023-03-05T04:37:30.436Z,9.02
2023-03-05T04:39:33.694Z,11.30
2023-03-05T04:41:36.735Z,15.73
2023-03-05T04:43:39.920Z,12.00
2023-03-05T04:45:46.622Z,13.60
2023-03-05T04:47:55.904Z,9.18
2023-03-05T04:50:01.179Z,9.43
2023-03-05T04:52:12.403Z,11.88
2023-03-05T04:54:15.724Z,8.85
2023-03-05T04:56:19.012Z,10.90
2023-03-05T04:58:29.793Z,12.80
2023-03-05T05:00:33.133Z,8.73
2023-03-05T05:02:36.253Z,8.82
2023-03-05T05:04:39.593Z,7.68
2023-03-05T05:06:42.579Z,14.90
2023-03-05T05:08:47.151Z,6.95
2023-03-05T05:10:57.716Z,10.10
2023-03-05T05:13:00.638Z,10.30
2023-03-05T05:15:04.401Z,7.68
2023-03-05T05:17:07.500Z,7.25
2023-03-05T05:19:10.587Z,8.15
2023-03-05T05:21:15.063Z,8.48
2023-03-05T05:23:18.615Z,9.20
2023-03-05T05:25:23.069Z,6.40
2023-03-05T05:27:25.930Z,8.13
2023-03-05T05:29:28.796Z,8.52
2023-03-05T05:31:31.966Z,8.55
2023-03-05T05:33:35.284Z,7.47
2023-03-05T05:35:40.297Z,6.43
2023-03-05T05:37:43.439Z,6.90
2023-03-05T05:39:50.485Z,6.28
2023-03-05T05:41:54.921Z,6.03
2023-03-05T05:43:57.839Z,7.13
2023-03-05T05:46:01.509Z,7.68
2023-03-05T05:48:04.482Z,9.05
2023-03-05T05:50:08.254Z,7.38
2023-03-05T05:52:11.251Z,10.25
2023-03-05T05:54:15.416Z,9.85
2023-03-05T05:56:18.680Z,10.30
2023-03-05T05:58:23.172Z,9.10
2023-03-05T06:00:26.112Z,9.95
2023-03-05T06:02:29.164Z,10.98
2023-03-05T06:04:32.242Z,10.57
2023-03-05T06:06:35.376Z,11.43
2023-03-05T06:08:38.945Z,10.55
2023-03-05T06:10:41.893Z,15.30
2023-03-05T06:12:44.931Z,15.52
2023-03-05T06:14:49.801Z,8.73
2023-03-05T06:16:52.629Z,11.23
2023-03-05T06:18:55.744Z,13.07
2023-03-05T06:21:00.190Z,13.38
2023-03-05T06:23:03.165Z,11.80
2023-03-05T06:25:07.130Z,11.27
2023-03-05T06:27:10.421Z,12.75
2023-03-05T06:29:13.382Z,8.48
2023-03-05T06:31:22.241Z,7.20
2023-03-05T06:33:25.602Z,11.70
2023-03-05T06:35:28.608Z,11.38
2023-03-05T06:37:31.751Z,9.35
2023-03-05T06:39:34.940Z,10.25
2023-03-05T06:41:37.879Z,10.73
2023-03-05T06:43:43.184Z,6.00
2023-03-05T06:45:46.098Z,9.82
2023-03-05T06:47:50.491Z,9.00
2023-03-05T06:49:53.319Z,10.23
2023-03-05T06:51:56.238Z,6.45
2023-03-05T06:54:02.078Z,12.52
2023-03-05T06:56:05.608Z,7.97
2023-03-05T06:58:08.549Z,11.30
2023-03-05T07:00:12.843Z,11.10
2023-03-05T07:02:16.113Z,12.05
2023-03-05T07:04:20.463Z,10.77
2023-03-05T07:06:23.886Z,9.07
2023-03-05T07:08:26.840Z,14.48
2023-03-05T07:10:29.719Z,12.13
2023-03-05T07:12:32.822Z,11.38
2023-03-05T07:14:35.841Z,9.57
2023-03-05T07:16:38.845Z,13.30
2023-03-05T07:18:42.010Z,13.77
2023-03-05T07:20:46.560Z,14.32
2023-03-05T07:22:49.423Z,12.27
2023-03-05T07:24:52.379Z,14.30
2023-03-05T07:26:55.223Z,16.13
2023-03-05T07:28:58.239Z,20.65
2023-03-05T07:31:03.770Z,19.40
2023-03-05T07:35:10.366Z,14.95
2023-03-05T07:37:15.842Z,15.90
2023-03-05T07:39:21.660Z,14.18
2023-03-05T07:41:24.812Z,14.80
2023-03-05T07:43:27.881Z,14.02
2023-03-05T07:45:30.782Z,15.82
2023-03-05T07:47:33.764Z,13.18
2023-03-05T07:49:36.973Z,14.75
2023-03-05T07:51:41.651Z,24.35
2023-03-05T07:53:47.812Z,27.67
2023-03-05T07:55:50.722Z,28.77
2023-03-05T07:57:53.922Z,20.27
2023-03-05T07:59:57.255Z,18.77
2023-03-05T08:02:00.560Z,81.25
2023-03-05T08:04:04.079Z,103.90
2023-03-05T08:06:07.652Z,121.05
2023-03-05T08:08:11.455Z,72.25
2023-03-05T08:10:16.591Z,125.93
2023-03-05T08:12:19.482Z,53.70
2023-03-05T08:14:22.573Z,23.42
2023-03-05T08:16:26.686Z,43.10
2023-03-05T08:18:29.561Z,99.20
2023-03-05T08:20:35.217Z,73.30
2023-03-05T08:22:38.487Z,62.35
2023-03-05T08:24:41.349Z,76.95
2023-03-05T08:26:45.806Z,51.88
2023-03-05T08:28:49.151Z,41.65
2023-03-05T08:30:52.415Z,63.47
2023-03-05T08:32:55.919Z,100.78
2023-03-05T08:34:59.445Z,39.40
2023-03-05T08:37:02.640Z,31.92
2023-03-05T08:39:07.211Z,34.97
2023-03-05T08:41:10.053Z,110.78
2023-03-05T08:43:15.506Z,47.88
2023-03-05T08:45:18.562Z,110.00
2023-03-05T08:47:21.468Z,98.50
2023-03-05T08:49:24.402Z,48.28
2023-03-05T08:51:27.808Z,53.35
2023-03-05T08:53:30.762Z,33.85
2023-03-05T08:55:33.696Z,33.67
2023-03-05T08:57:36.665Z,35.35
2023-03-05T08:59:41.046Z,53.88
2023-03-05T09:01:44.063Z,45.63
2023-03-05T09:03:47.244Z,33.88
2023-03-05T09:05:51.646Z,42.22
2023-03-05T09:07:54.602Z,40.05
2023-03-05T09:09:57.531Z,34.42
2023-03-05T09:12:00.737Z,35.83
2023-03-05T09:14:04.030Z,46.40
2023-03-05T09:16:11.404Z,43.85
2023-03-05T09:18:14.603Z,39.05
2023-03-05T09:20:17.981Z,39.28
2023-03-05T09:22:20.967Z,43.15
2023-03-05T09:24:24.934Z,42.15
2023-03-05T09:26:28.251Z,42.00
2023-03-05T09:28:31.250Z,44.53
2023-03-05T09:30:35.455Z,53.28
2023-03-05T09:32:40.009Z,36.75
2023-03-05T09:34:43.175Z,35.60
2023-03-05T09:36:46.177Z,39.13
2023-03-05T09:38:49.180Z,41.78
2023-03-05T09:40:58.862Z,51.13
2023-03-05T09:43:08.701Z,42.33
2023-03-05T09:45:21.873Z,54.72
2023-03-05T09:47:45.180Z,47.15
2023-03-05T09:49:58.419Z,36.35
2023-03-05T09:52:07.712Z,54.00
2023-03-05T09:54:16.945Z,37.38
2023-03-05T09:56:24.040Z,37.85
2023-03-05T09:58:34.621Z,29.60
2023-03-05T10:00:41.614Z,28.92
2023-03-05T10:02:51.554Z,29.83
2023-03-05T10:05:04.819Z,28.13
2023-03-05T10:07:15.693Z,26.35
2023-03-05T10:09:30.953Z,34.58
2023-03-05T10:11:54.367Z,36.85
2023-03-05T10:13:57.864Z,60.78
2023-03-05T10:16:11.548Z,51.90
2023-03-05T10:18:23.541Z,76.32
2023-03-05T10:21:02.487Z,60.10
2023-03-05T10:23:21.143Z,60.25
2023-03-05T10:25:34.651Z,87.15
2023-03-05T10:27:49.847Z,68.22
2023-03-05T10:30:01.658Z,72.85
2023-03-05T10:32:17.361Z,57.08
2023-03-05T10:34:49.893Z,45.15
2023-03-05T10:37:20.352Z,41.38
2023-03-05T10:39:53.182Z,22.73
2023-03-05T10:42:06.313Z,32.53
2023-03-05T10:44:17.054Z,36.60
2023-03-05T10:46:24.673Z,37.38
2023-03-05T10:48:38.543Z,29.17
2023-03-05T10:50:45.106Z,33.40
2023-03-05T10:52:55.759Z,20.88
2023-03-05T10:54:58.726Z,21.52
2023-03-05T10:57:14.402Z,24.00
2023-03-05T10:59:17.350Z,22.70
2023-03-05T11:01:23.197Z,19.85
2023-03-05T11:03:26.514Z,17.70
2023-03-05T11:05:40.230Z,14.43
2023-03-05T11:07:43.398Z,21.40
2023-03-05T11:10:04.940Z,16.50
2023-03-05T11:12:14.216Z,14.10
2023-03-05T11:14:31.153Z,7.50
2023-03-05T11:16:45.869Z,13.52
2023-03-05T11:18:49.281Z,11.93
2023-03-05T11:20:52.772Z,7.38
2023-03-05T11:23:05.088Z,10.85
2023-03-05T11:25:19.347Z,10.60
2023-03-05T11:27:26.316Z,10.07
2023-03-05T11:29:31.362Z,14.43
2023-03-05T11:31:34.490Z,13.82
2023-03-05T11:33:38.385Z,10.70
2023-03-05T11:35:43.565Z,10.07
2023-03-05T11:38:00.917Z,12.10
2023-03-05T11:40:19.800Z,11.93
2023-03-05T11:42:25.615Z,17.02
2023-03-05T11:44:34.485Z,28.40
2023-03-05T11:46:42.184Z,17.77
2023-03-05T11:48:47.378Z,18.67
2023-03-05T11:50:55.687Z,37.55
2023-03-05T11:53:02.789Z,38.38
2023-03-05T11:55:13.879Z,24.83
2023-03-05T11:57:19.740Z,16.05
2023-03-05T11:59:28.895Z,23.65
2023-03-05T12:01:36.031Z,5.43
2023-03-05T12:03:39.654Z,12.35
2023-03-05T12:05:46.372Z,8.93
2023-03-05T12:07:53.293Z,12.15
2023-03-05T12:09:56.254Z,14.52
2023-03-05T12:12:07.452Z,10.93
2023-03-05T12:14:22.015Z,13.52
2023-03-05T12:16:32.024Z,14.73
2023-03-05T12:18:45.294Z,11.90
2023-03-05T12:21:00.856Z,8.43
2023-03-05T12:23:05.190Z,7.83
2023-03-05T12:25:29.278Z,9.75
2023-03-05T12:27:34.606Z,12.60
2023-03-05T12:29:44.788Z,10.45
2023-03-05T12:31:47.686Z,18.73
2023-03-05T12:33:50.836Z,22.10
2023-03-05T12:35:53.687Z,13.77
2023-03-05T12:38:17.178Z,8.55
2023-03-05T12:40:29.005Z,24.30
2023-03-05T12:42:53.087Z,19.83
2023-03-05T12:45:29.146Z,25.20
2023-03-05T12:47:33.505Z,24.17
2023-03-05T12:49:39.235Z,16.02
2023-03-05T12:51:42.769Z,22.85
2023-03-05T12:53:45.727Z,48.95
2023-03-05T12:55:58.389Z,56.75
2023-03-05T12:58:05.310Z,52.55
2023-03-05T13:00:14.949Z,28.15
2023-03-05T13:02:27.568Z,29.02
2023-03-05T13:04:35.435Z,27.95
2023-03-05T13:06:39.922Z,19.63
2023-03-05T13:08:43.971Z,18.60
2023-03-05T13:10:52.716Z,35.45
2023-03-05T13:12:58.843Z,27.00
2023-03-05T13:15:04.652Z,21.92
2023-03-05T13:17:38.398Z,31.10
2023-03-05T13:19:43.769Z,34.40
2023-03-05T13:21:46.908Z,19.55
2023-03-05T13:23:58.033Z,32.55
2023-03-05T13:26:13.516Z,19.65
2023-03-05T13:28:17.446Z,26.88
2023-03-05T13:30:26.646Z,20.27
2023-03-05T13:32:32.194Z,23.73
2023-03-05T13:34:47.085Z,21.10
2023-03-05T13:36:58.277Z,22.10
2023-03-05T13:39:02.604Z,17.73
2023-03-05T13:41:09.196Z,19.27
2023-03-05T13:43:18.984Z,29.00
2023-03-05T13:45:26.178Z,26.42
2023-03-05T13:47:31.995Z,25.30
2023-03-05T13:49:35.014Z,30.58
2023-03-05T13:51:45.384Z,31.42
2023-03-05T13:53:50.577Z,27.73
2023-03-05T13:55:56.851Z,21.80
2023-03-05T13:58:00.193Z,28.20
2023-03-05T14:00:04.242Z,35.33
2023-03-05T14:02:18.332Z,36.10
2023-03-05T14:04:24.916Z,23.02
2023-03-05T14:06:29.892Z,22.85
2023-03-05T14:08:33.831Z,17.35
2023-03-05T14:10:39.296Z,19.17
2023-03-05T14:12:44.082Z,19.52
2023-03-05T14:14:47.695Z,17.13
2023-03-05T14:16:50.619Z,18.63
2023-03-05T14:18:55.656Z,25.77
2023-03-05T14:21:02.095Z,25.20
2023-03-05T14:23:27.234Z,24.98
2023-03-05T14:25:36.767Z,9.65
2023-03-05T14:27:41.425Z,20.33
2023-03-05T14:29:46.689Z,29.60
2023-03-05T14:31:52.096Z,17.45
2023-03-05T14:34:01.135Z,24.88
2023-03-05T14:36:05.506Z,23.33
2023-03-05T14:38:16.767Z,12.68
2023-03-05T14:40:22.078Z,18.92
2023-03-05T14:42:33.458Z,16.35
2023-03-05T14:44:37.927Z,24.67
2023-03-05T14:46:41.430Z,18.23
2023-03-05T14:48:44.347Z,29.58
2023-03-05T14:50:54.103Z,28.10
2023-03-05T14:53:01.950Z,40.30
2023-03-05T14:55:06.024Z,27.95
2023-03-05T14:57:15.862Z,32.10
2023-03-05T14:59:18.882Z,27.15
2023-03-05T15:01:25.240Z,27.17
2023-03-05T15:03:28.618Z,55.13
2023-03-05T15:05:32.571Z,21.42
2023-03-05T15:07:35.692Z,33.75
2023-03-05T15:09:38.724Z,47.83
2023-03-05T15:11:41.683Z,44.30
2023-03-05T15:13:44.930Z,28.65
2023-03-05T15:15:49.402Z,22.73
2023-03-05T15:17:57.976Z,16.85
2023-03-05T15:20:01.276Z,22.45
2023-03-05T15:22:04.509Z,31.85
2023-03-05T15:24:10.121Z,23.00
2023-03-05T15:26:15.369Z,36.17
2023-03-05T15:28:18.390Z,58.97
2023-03-05T15:30:23.564Z,58.33
2023-03-05T15:32:27.795Z,45.97
2023-03-05T15:34:34.092Z,46.83
2023-03-05T15:36:36.982Z,66.82
2023-03-05T15:38:41.974Z,66.22
2023-03-05T15:40:45.289Z,83.63
2023-03-05T15:42:49.303Z,153.00
2023-03-05T15:44:52.227Z,116.50
2023-03-05T15:46:57.065Z,28.52
2023-03-05T15:49:00.306Z,27.70
2023-03-05T15:51:07.471Z,60.88
2023-03-05T15:53:12.248Z,63.95
2023-03-05T15:55:15.356Z,58.42
2023-03-05T15:57:24.033Z,114.80
2023-03-05T15:59:27.587Z,57.50
2023-03-05T16:01:30.486Z,37.08
2023-03-05T16:03:33.510Z,30.70
2023-03-05T16:05:38.215Z,20.73
2023-03-05T16:07:46.454Z,23.87
2023-03-05T16:09:51.847Z,26.23
2023-03-05T16:11:54.860Z,35.22
2023-03-05T16:13:58.125Z,33.60
2023-03-05T16:16:03.308Z,34.42
2023-03-05T16:18:11.370Z,9.83
2023-03-05T16:20:16.424Z,15.90
2023-03-05T16:22:19.745Z,7.30
2023-03-05T16:24:24.253Z,7.70
2023-03-05T16:26:27.616Z,6.70
2023-03-05T16:28:30.598Z,8.52
2023-03-05T16:30:33.831Z,5.90
2023-03-05T16:32:37.965Z,7.35
2023-03-05T16:34:40.974Z,8.23
2023-03-05T16:36:49.263Z,9.65
2023-03-05T16:38:54.327Z,9.80
2023-03-05T16:41:07.839Z,10.77
2023-03-05T16:43:11.325Z,13.75
2023-03-05T16:45:14.363Z,14.38
2023-03-05T16:47:17.285Z,12.32
2023-03-05T16:49:20.827Z,17.52
2023-03-05T16:51:24.348Z,16.70
2023-03-05T16:53:27.224Z,16.52
2023-03-05T16:55:30.373Z,16.05
2023-03-05T16:57:35.185Z,23.20
2023-03-05T16:59:38.592Z,30.40
2023-03-05T17:01:41.622Z,33.28
2023-03-05T17:03:45.307Z,46.30
2023-03-05T17:05:48.188Z,29.00
2023-03-05T17:07:51.032Z,26.50
2023-03-05T17:09:54.699Z,22.77
2023-03-05T17:11:57.602Z,23.92
2023-03-05T17:14:04.269Z,29.77
2023-03-05T17:16:08.433Z,29.65
2023-03-05T17:18:11.381Z,32.20
2023-03-05T17:20:14.508Z,37.47
2023-03-05T17:22:17.714Z,34.10
2023-03-05T17:24:22.275Z,42.17
2023-03-05T17:26:25.750Z,36.70
2023-03-05T17:28:28.561Z,41.25
2023-03-05T17:30:33.753Z,53.10
2023-03-05T17:32:36.750Z,48.80
2023-03-05T17:34:40.248Z,50.90
2023-03-05T17:36:43.340Z,45.95
2023-03-05T17:38:47.927Z,46.80
2023-03-05T17:40:50.922Z,47.80
2023-03-05T17:42:53.790Z,57.85
2023-03-05T17:44:57.541Z,62.90
2023-03-05T17:47:02.006Z,71.75
2023-03-05T17:49:04.840Z,75.68
2023-03-05T17:51:08.120Z,84.97
2023-03-05T17:53:11.101Z,67.15
2023-03-05T17:55:17.544Z,45.90
2023-03-05T17:57:20.561Z,68.45
2023-03-05T17:59:24.295Z,108.22
2023-03-05T18:01:29.821Z,118.82
2023-03-05T18:05:37.261Z,87.22
2023-03-05T18:07:40.647Z,73.93
2023-03-05T18:09:43.682Z,59.97
2023-03-05T18:11:46.649Z,43.30
2023-03-05T18:13:49.672Z,38.17
2023-03-05T18:15:52.854Z,36.53
2023-03-05T18:17:55.976Z,29.60
2023-03-05T18:20:02.848Z,30.05
2023-03-05T18:22:06.886Z,35.70
2023-03-05T18:24:10.014Z,33.55
2023-03-05T18:26:13.012Z,48.90
2023-03-05T18:28:17.020Z,44.78
2023-03-05T18:30:20.040Z,46.63
2023-03-05T18:32:24.527Z,51.15
2023-03-05T18:34:27.969Z,46.47
2023-03-05T18:36:33.261Z,44.17
2023-03-05T18:38:36.628Z,44.78
2023-03-05T18:40:40.499Z,54.47
2023-03-05T18:42:43.359Z,51.33
2023-03-05T18:44:46.308Z,53.63
2023-03-05T18:46:49.215Z,42.53
2023-03-05T18:48:52.448Z,43.22
2023-03-05T18:50:55.526Z,46.05
2023-03-05T18:53:00.157Z,44.28
2023-03-05T18:55:03.017Z,45.63
2023-03-05T18:57:05.958Z,48.78
2023-03-05T18:59:08.898Z,40.72
2023-03-05T19:01:11.931Z,46.80
2023-03-05T19:03:15.241Z,45.42
2023-03-05T19:05:18.712Z,56.85
2023-03-05T19:07:21.657Z,62.58
2023-03-05T19:09:53.881Z,82.38
2023-03-05T19:11:56.916Z,100.38
2023-03-05T19:13:59.910Z,234.23
2023-03-05T19:16:08.236Z,111.40
2023-03-05T19:18:11.240Z,73.13
2023-03-05T19:20:16.230Z,39.95
2023-03-05T19:22:19.433Z,24.30
2023-03-05T19:24:23.974Z,36.92
2023-03-05T19:26:28.210Z,26.05
2023-03-05T19:28:31.294Z,32.42
2023-03-05T19:30:34.422Z,31.70
2023-03-05T19:32:37.879Z,23.23
2023-03-05T19:34:41.362Z,24.98
2023-03-05T19:36:44.513Z,27.67
2023-03-05T19:38:48.657Z,30.02
2023-03-05T19:42:58.078Z,22.17
2023-03-05T19:45:02.016Z,198.40
2023-03-05T19:47:05.079Z,425.30
2023-03-05T19:49:08.322Z,345.38
2023-03-05T19:51:17.055Z,255.63
2023-03-05T19:53:20.077Z,408.25
2023-03-05T19:55:22.902Z,66.95
2023-03-05T19:57:25.896Z,59.03
2023-03-05T19:59:30.355Z,113.80
2023-03-05T20:01:33.556Z,41.95
2023-03-05T20:03:38.665Z,25.35
2023-03-05T20:05:42.356Z,15.50
2023-03-05T20:07:45.275Z,26.70
2023-03-05T20:09:50.522Z,27.15
2023-03-05T20:11:53.539Z,37.10
2023-03-05T20:13:56.633Z,47.15
2023-03-05T20:16:01.266Z,50.55
2023-03-05T20:18:04.592Z,85.03
2023-03-05T20:20:08.721Z,111.22
2023-03-05T20:22:11.628Z,19.15
2023-03-05T20:24:16.943Z,16.98
2023-03-05T20:26:20.178Z,17.75
2023-03-05T20:28:26.443Z,15.32
2023-03-05T20:30:30.009Z,18.15
2023-03-05T20:32:34.460Z,24.33
2023-03-05T20:34:37.358Z,13.95
2023-03-05T20:36:40.657Z,18.77
2023-03-05T20:38:45.999Z,16.38
2023-03-05T20:40:50.199Z,20.55
2023-03-05T20:42:53.227Z,17.25
2023-03-05T20:44:56.161Z,16.33
2023-03-05T20:47:46.377Z,21.80
2023-03-05T20:49:55.161Z,38.92
2023-03-05T20:51:58.015Z,25.10
2023-03-05T20:54:04.378Z,18.40
2023-03-05T20:56:07.842Z,18.35
2023-03-05T20:58:11.193Z,13.52
2023-03-05T21:00:15.203Z,17.67
2023-03-05T21:02:18.731Z,62.55
2023-03-05T21:04:21.800Z,66.60
2023-03-05T21:06:27.464Z,75.90
2023-03-05T21:08:30.645Z,45.83
2023-03-05T21:10:33.693Z,43.42
2023-03-05T21:12:36.537Z,45.83
2023-03-05T21:14:41.130Z,41.88
2023-03-05T21:16:44.022Z,41.35
2023-03-05T21:18:46.924Z,47.92
2023-03-05T21:20:50.484Z,45.00
2023-03-05T21:22:55.471Z,42.20
2023-03-05T21:25:23.283Z,45.72
2023-03-05T21:27:26.246Z,44.85
2023-03-05T21:29:29.103Z,40.67
2023-03-05T21:31:32.570Z,37.20
2023-03-05T21:33:35.738Z,28.48
2023-03-05T21:35:39.860Z,29.40
2023-03-05T21:37:43.213Z,33.90
2023-03-05T21:39:47.682Z,24.58
2023-03-05T21:41:50.834Z,28.00
2023-03-05T21:43:54.032Z,25.17
2023-03-05T21:45:58.049Z,19.90
2023-03-05T21:48:01.395Z,28.90
2023-03-05T21:50:04.612Z,31.08
2023-03-05T21:52:12.244Z,32.05
2023-03-05T21:54:15.155Z,30.00
2023-03-05T21:56:25.613Z,30.35
2023-03-05T21:58:28.533Z,28.60
2023-03-05T22:00:31.490Z,29.50
2023-03-05T22:02:34.396Z,31.25
2023-03-05T22:04:37.436Z,29.95
2023-03-05T22:06:40.316Z,38.00
2023-03-05T22:08:43.266Z,40.45
2023-03-05T22:10:46.411Z,35.22
2023-03-05T22:13:11.841Z,30.27
2023-03-05T22:15:14.798Z,28.15
2023-03-05T22:17:17.753Z,25.98
2023-03-05T22:19:20.950Z,23.38
2023-03-05T22:21:27.232Z,33.15
2023-03-05T22:23:31.811Z,31.60
2023-03-05T22:25:34.862Z,28.88
2023-03-05T22:27:37.702Z,27.05
2023-03-05T22:29:42.143Z,28.20
2023-03-05T22:31:45.563Z,24.23
2023-03-05T22:33:48.612Z,25.75
2023-03-05T22:35:51.898Z,29.00
2023-03-05T22:37:54.834Z,25.73
2023-03-05T22:39:58.213Z,24.92
2023-03-05T22:42:01.441Z,27.60
2023-03-05T22:44:04.471Z,25.80
2023-03-05T22:46:13.566Z,34.53
2023-03-05T22:48:16.855Z,40.13
2023-03-05T22:50:20.366Z,40.17
2023-03-05T22:52:23.310Z,37.13
2023-03-05T22:54:26.325Z,44.53
2023-03-05T22:56:29.192Z,48.50
2023-03-05T22:58:32.210Z,53.88
2023-03-05T23:00:35.175Z,62.80
2023-03-05T23:02:39.693Z,68.13
2023-03-05T23:04:52.980Z,69.30
2023-03-05T23:06:56.058Z,99.80
2023-03-05T23:08:58.949Z,70.35
2023-03-05T23:11:07.769Z,65.63
2023-03-05T23:13:10.628Z,57.03
2023-03-05T23:15:15.841Z,58.25
2023-03-05T23:17:18.751Z,58.88
2023-03-05T23:19:23.170Z,56.05
2023-03-05T23:21:26.394Z,54.80
2023-03-05T23:23:29.254Z,53.25
2023-03-05T23:25:34.112Z,47.88
2023-03-05T23:27:37.004Z,41.53
2023-03-05T23:30:23.077Z,44.47
2023-03-05T23:32:29.155Z,32.08
2023-03-05T23:34:33.525Z,30.58
2023-03-05T23:36:36.392Z,29.83
2023-03-05T23:38:39.354Z,28.63
2023-03-05T23:40:43.687Z,28.48
2023-03-05T23:42:46.701Z,25.95
2023-03-05T23:44:49.703Z,21.65
2023-03-05T23:46:52.531Z,20.83
2023-03-05T23:48:55.425Z,23.40
2023-03-05T23:50:59.917Z,19.65
2023-03-05T23:53:03.290Z,23.08
2023-03-05T23:55:07.279Z,21.85
2023-03-05T23:57:10.230Z,15.73
2023-03-05T23:59:13.040Z,17.08
